createdAt,value
2022-12-12T00:01:15.648Z,7.05
2022-12-12T00:03:43.265Z,6.81
2022-12-12T00:06:10.770Z,7.92
2022-12-12T00:08:38.599Z,8.07
2022-12-12T00:11:06.700Z,8.07
2022-12-12T00:13:34.467Z,9.26
2022-12-12T00:16:05.080Z,8.93
2022-12-12T00:18:32.589Z,9.07
2022-12-12T00:21:00.383Z,9.02
2022-12-12T00:23:27.856Z,8.71
2022-12-12T00:25:57.298Z,8.26
2022-12-12T00:28:25.527Z,8.42
2022-12-12T00:30:53.290Z,8.50
2022-12-12T00:33:22.718Z,5.41
2022-12-12T00:35:50.941Z,2.86
2022-12-12T00:38:19.073Z,2.19
2022-12-12T00:40:46.842Z,1.84
2022-12-12T00:43:14.285Z,2.01
2022-12-12T00:45:41.749Z,1.96
2022-12-12T00:48:10.151Z,1.26
2022-12-12T00:50:39.000Z,1.17
2022-12-12T00:53:06.479Z,0.93
2022-12-12T00:55:34.059Z,0.93
2022-12-12T00:58:01.494Z,0.64
2022-12-12T01:00:29.391Z,0.69
2022-12-12T01:02:56.995Z,0.56
2022-12-12T01:05:24.867Z,0.44
2022-12-12T01:07:54.080Z,0.21
2022-12-12T01:10:21.812Z,0.47
2022-12-12T01:12:49.237Z,0.00
2022-12-12T01:15:16.713Z,0.17
2022-12-12T01:17:44.174Z,0.04
2022-12-12T01:20:17.912Z,-0.11
2022-12-12T01:22:45.330Z,0.26
2022-12-12T01:25:15.670Z,0.11
2022-12-12T01:27:43.372Z,0.26
2022-12-12T01:30:14.122Z,0.47
2022-12-12T01:32:41.584Z,0.79
2022-12-12T01:35:10.038Z,0.71
2022-12-12T01:37:40.129Z,0.87
2022-12-12T01:40:10.454Z,0.49
2022-12-12T01:42:39.193Z,0.47
2022-12-12T01:45:07.673Z,0.49
2022-12-12T01:47:35.280Z,0.78
2022-12-12T01:50:09.051Z,1.17
2022-12-12T01:52:44.453Z,1.09
2022-12-12T01:55:16.375Z,0.79
2022-12-12T01:57:48.111Z,0.87
2022-12-12T02:00:16.756Z,0.96
2022-12-12T02:02:46.564Z,0.72
2022-12-12T02:05:19.657Z,0.68
2022-12-12T02:07:47.155Z,1.13
2022-12-12T02:10:14.665Z,0.73
2022-12-12T02:12:42.352Z,0.83
2022-12-12T02:15:12.228Z,0.75
2022-12-12T02:17:54.539Z,0.50
2022-12-12T02:20:46.571Z,1.26
2022-12-12T02:23:42.512Z,1.46
2022-12-12T02:26:53.414Z,0.84
2022-12-12T02:29:47.378Z,0.30
2022-12-12T02:32:25.928Z,0.85
2022-12-12T02:35:01.102Z,0.48
2022-12-12T02:37:33.194Z,0.66
2022-12-12T02:40:08.591Z,0.54
2022-12-12T02:42:42.963Z,0.70
2022-12-12T02:45:17.430Z,0.55
2022-12-12T02:47:48.992Z,0.95
2022-12-12T02:50:19.986Z,0.88
2022-12-12T02:52:49.589Z,0.99
2022-12-12T02:55:18.001Z,1.04
2022-12-12T02:57:45.738Z,1.06
2022-12-12T03:00:15.862Z,1.13
2022-12-12T03:03:18.852Z,0.76
2022-12-12T03:06:10.341Z,1.23
2022-12-12T03:08:53.896Z,1.51
2022-12-12T03:11:31.871Z,1.10
2022-12-12T03:14:05.525Z,1.25
2022-12-12T03:16:39.585Z,1.44
2022-12-12T03:19:13.710Z,1.64
2022-12-12T03:21:47.439Z,1.25
2022-12-12T03:24:26.119Z,0.55
2022-12-12T03:26:58.142Z,0.72
2022-12-12T03:29:30.065Z,1.44
2022-12-12T03:32:04.217Z,1.13
2022-12-12T03:34:39.077Z,1.01
2022-12-12T03:37:12.711Z,1.35
2022-12-12T03:39:45.977Z,1.51
2022-12-12T03:42:19.912Z,1.75
2022-12-12T03:44:51.928Z,1.56
2022-12-12T03:47:24.246Z,2.05
2022-12-12T03:49:59.840Z,1.87
2022-12-12T03:52:31.932Z,2.15
2022-12-12T03:55:04.286Z,1.83
2022-12-12T03:57:37.922Z,1.88
2022-12-12T04:00:10.283Z,1.88
2022-12-12T04:02:42.851Z,2.13
2022-12-12T04:05:17.517Z,2.14
2022-12-12T04:07:48.006Z,1.68
2022-12-12T04:10:33.154Z,1.74
2022-12-12T04:13:11.092Z,1.95
2022-12-12T04:15:53.793Z,2.14
2022-12-12T04:18:31.302Z,2.14
2022-12-12T04:21:26.673Z,2.02
2022-12-12T04:24:04.008Z,2.14
2022-12-12T04:26:40.866Z,2.05
2022-12-12T04:29:16.420Z,2.18
2022-12-12T04:31:51.554Z,1.92
2022-12-12T04:34:26.299Z,2.08
2022-12-12T04:36:55.639Z,2.04
2022-12-12T04:39:24.418Z,2.05
2022-12-12T04:41:54.910Z,1.81
2022-12-12T04:44:25.016Z,1.86
2022-12-12T04:46:55.809Z,1.68
2022-12-12T04:49:27.611Z,1.57
2022-12-12T04:52:01.835Z,1.70
2022-12-12T04:54:35.820Z,1.65
2022-12-12T04:57:07.424Z,1.46
2022-12-12T04:59:35.217Z,1.35
2022-12-12T05:02:10.218Z,1.13
2022-12-12T05:04:45.612Z,1.48
2022-12-12T05:07:19.038Z,1.13
2022-12-12T05:09:46.677Z,1.04
2022-12-12T05:12:16.066Z,0.81
2022-12-12T05:14:43.505Z,1.06
2022-12-12T05:17:16.842Z,1.44
2022-12-12T05:19:44.236Z,1.14
2022-12-12T05:22:11.723Z,0.62
2022-12-12T05:24:40.450Z,0.73
2022-12-12T05:27:07.878Z,0.75
2022-12-12T05:29:35.350Z,0.91
2022-12-12T05:32:02.925Z,1.53
2022-12-12T05:34:30.360Z,0.96
2022-12-12T05:36:57.983Z,0.96
2022-12-12T05:39:25.453Z,1.42
2022-12-12T05:41:54.182Z,1.21
2022-12-12T05:44:21.604Z,0.98
2022-12-12T05:46:49.038Z,0.57
2022-12-12T05:49:16.477Z,0.93
2022-12-12T05:51:43.887Z,1.21
2022-12-12T05:54:11.392Z,0.88
2022-12-12T05:56:38.815Z,0.85
2022-12-12T05:59:07.558Z,1.05
2022-12-12T06:01:35.104Z,0.97
2022-12-12T06:04:02.638Z,0.77
2022-12-12T06:06:30.071Z,0.97
2022-12-12T06:08:57.635Z,0.81
2022-12-12T06:11:25.033Z,1.19
2022-12-12T06:13:52.475Z,0.61
2022-12-12T06:16:21.225Z,0.70
2022-12-12T06:18:52.564Z,0.57
2022-12-12T06:21:20.607Z,0.55
2022-12-12T06:23:48.974Z,0.40
2022-12-12T06:26:18.619Z,0.71
2022-12-12T06:28:46.840Z,0.54
2022-12-12T06:31:14.790Z,0.83
2022-12-12T06:33:44.792Z,0.74
2022-12-12T06:36:14.682Z,0.63
2022-12-12T06:38:42.496Z,1.16
2022-12-12T06:41:12.322Z,1.14
2022-12-12T06:43:40.221Z,0.59
2022-12-12T06:46:11.219Z,0.90
2022-12-12T06:48:38.772Z,0.46
2022-12-12T06:51:09.190Z,0.78
2022-12-12T06:53:36.920Z,0.48
2022-12-12T06:56:07.507Z,0.52
2022-12-12T06:58:35.273Z,0.37
2022-12-12T07:01:02.884Z,0.35
2022-12-12T07:03:30.474Z,0.83
2022-12-12T07:05:58.047Z,0.63
2022-12-12T07:08:28.305Z,0.47
2022-12-12T07:10:56.513Z,0.39
2022-12-12T07:13:24.111Z,0.38
2022-12-12T07:15:51.993Z,0.29
2022-12-12T07:18:19.553Z,0.48
2022-12-12T07:20:47.532Z,0.31
2022-12-12T07:23:15.219Z,0.31
2022-12-12T07:25:45.723Z,0.46
2022-12-12T07:28:14.653Z,0.39
2022-12-12T07:30:43.842Z,0.41
2022-12-12T07:33:12.911Z,0.75
2022-12-12T07:35:41.723Z,0.69
2022-12-12T07:38:10.199Z,0.55
2022-12-12T07:40:37.738Z,0.47
2022-12-12T07:43:06.660Z,0.19
2022-12-12T07:45:34.547Z,0.36
2022-12-12T07:48:02.053Z,0.41
2022-12-12T07:50:29.497Z,0.68
2022-12-12T07:52:56.875Z,0.71
2022-12-12T07:55:24.368Z,0.28
2022-12-12T07:57:53.153Z,0.27
2022-12-12T08:00:22.854Z,0.26
2022-12-12T08:02:50.822Z,0.28
2022-12-12T08:05:18.732Z,0.22
2022-12-12T08:07:47.147Z,0.16
2022-12-12T08:10:15.157Z,0.25
2022-12-12T08:12:42.682Z,0.40
2022-12-12T08:15:16.125Z,0.98
2022-12-12T08:17:45.705Z,0.48
2022-12-12T08:20:13.223Z,0.39
2022-12-12T08:22:41.619Z,0.66
2022-12-12T08:25:09.543Z,0.41
2022-12-12T08:27:37.372Z,0.40
2022-12-12T08:30:05.955Z,0.65
2022-12-12T08:32:33.679Z,0.47
2022-12-12T08:35:02.480Z,0.82
2022-12-12T08:37:29.945Z,0.61
2022-12-12T08:39:57.414Z,0.41
2022-12-12T08:42:24.929Z,0.54
2022-12-12T08:44:52.555Z,0.57
2022-12-12T08:47:19.980Z,0.55
2022-12-12T08:49:47.476Z,0.39
2022-12-12T08:52:16.267Z,0.42
2022-12-12T08:54:43.737Z,0.59
2022-12-12T08:57:11.144Z,0.81
2022-12-12T08:59:38.548Z,0.95
2022-12-12T09:02:06.299Z,0.60
2022-12-12T09:04:35.011Z,0.36
2022-12-12T09:07:08.219Z,0.66
2022-12-12T09:09:37.616Z,0.75
2022-12-12T09:12:05.506Z,0.60
2022-12-12T09:14:33.859Z,0.44
2022-12-12T09:17:01.452Z,0.42
2022-12-12T09:19:28.916Z,0.77
2022-12-12T09:21:56.961Z,0.40
2022-12-12T09:24:25.547Z,0.29
2022-12-12T09:26:54.294Z,0.30
2022-12-12T09:29:21.859Z,0.18
2022-12-12T09:31:49.292Z,0.40
2022-12-12T09:34:16.925Z,0.26
2022-12-12T09:36:44.303Z,0.40
2022-12-12T09:39:11.831Z,0.38
2022-12-12T09:41:39.390Z,0.52
2022-12-12T09:44:10.743Z,0.48
2022-12-12T09:46:41.408Z,0.26
2022-12-12T09:49:15.384Z,0.92
2022-12-12T09:51:46.857Z,0.44
2022-12-12T09:54:16.932Z,0.22
2022-12-12T09:56:53.662Z,0.49
2022-12-12T09:59:31.051Z,0.22
2022-12-12T10:02:06.120Z,0.29
2022-12-12T10:04:39.810Z,0.34
2022-12-12T10:07:14.478Z,0.16
2022-12-12T10:09:53.960Z,0.18
2022-12-12T10:12:23.059Z,0.40
2022-12-12T10:14:55.650Z,0.61
2022-12-12T10:17:28.785Z,0.41
2022-12-12T10:19:59.878Z,0.33
2022-12-12T10:22:35.688Z,-0.23
2022-12-12T10:25:19.947Z,0.20
2022-12-12T10:27:47.825Z,0.22
2022-12-12T10:30:19.575Z,0.36
2022-12-12T10:33:03.709Z,0.44
2022-12-12T10:35:39.433Z,0.46
2022-12-12T10:38:24.541Z,0.38
2022-12-12T10:40:59.531Z,0.07
2022-12-12T10:43:35.293Z,0.10
2022-12-12T10:46:23.657Z,0.27
2022-12-12T10:48:52.200Z,0.52
2022-12-12T10:51:22.751Z,0.09
2022-12-12T10:53:50.438Z,0.22
2022-12-12T10:56:22.331Z,0.88
2022-12-12T10:58:55.202Z,0.68
2022-12-12T11:02:00.594Z,0.39
2022-12-12T11:04:16.675Z,0.53
2022-12-12T11:06:48.248Z,0.42
2022-12-12T11:09:19.402Z,0.62
2022-12-12T11:11:58.097Z,0.25
2022-12-12T11:14:32.616Z,0.41
2022-12-12T11:17:01.578Z,0.31
2022-12-12T11:19:38.641Z,1.04
2022-12-12T11:22:06.212Z,0.56
2022-12-12T11:24:35.824Z,0.62
2022-12-12T11:27:06.143Z,0.88
2022-12-12T11:29:43.237Z,0.38
2022-12-12T11:32:15.673Z,0.63
2022-12-12T11:34:47.000Z,0.20
2022-12-12T11:37:19.239Z,0.12
2022-12-12T11:39:50.231Z,0.47
2022-12-12T11:42:21.445Z,0.27
2022-12-12T11:44:59.324Z,0.01
2022-12-12T11:47:30.239Z,0.31
2022-12-12T11:49:59.755Z,0.16
2022-12-12T11:52:29.883Z,-0.35
2022-12-12T11:54:58.408Z,-0.31
2022-12-12T11:57:44.846Z,-0.19
2022-12-12T12:00:15.564Z,-0.47
2022-12-12T12:03:11.463Z,-0.53
2022-12-12T12:05:49.638Z,-0.58
2022-12-12T12:08:28.798Z,-0.53
2022-12-12T12:11:10.550Z,-0.63
2022-12-12T12:13:53.772Z,-0.42
2022-12-12T12:16:32.951Z,-0.18
2022-12-12T12:19:12.463Z,-0.38
2022-12-12T12:21:49.340Z,-0.44
2022-12-12T12:24:44.643Z,-0.28
2022-12-12T12:27:19.850Z,0.57
2022-12-12T12:30:07.288Z,0.40
2022-12-12T12:32:48.506Z,-0.06
2022-12-12T12:35:28.734Z,-0.06
2022-12-12T12:38:07.286Z,0.05
2022-12-12T12:40:47.784Z,0.42
2022-12-12T12:43:36.910Z,-0.02
2022-12-12T12:46:13.583Z,0.03
2022-12-12T12:48:45.306Z,0.57
2022-12-12T12:51:21.535Z,0.87
2022-12-12T12:53:54.054Z,0.33
2022-12-12T12:56:29.079Z,0.21
2022-12-12T12:59:02.292Z,0.17
2022-12-12T13:01:34.974Z,0.17
2022-12-12T13:04:06.170Z,0.34
2022-12-12T13:06:43.333Z,0.71
2022-12-12T13:09:23.779Z,-0.12
2022-12-12T13:11:54.652Z,0.14
2022-12-12T13:14:35.354Z,0.25
2022-12-12T13:17:06.881Z,0.12
2022-12-12T13:19:38.328Z,0.20
2022-12-12T13:22:12.760Z,0.10
2022-12-12T13:24:54.883Z,0.01
2022-12-12T13:27:30.829Z,0.28
2022-12-12T13:30:03.444Z,0.55
2022-12-12T13:32:55.324Z,0.21
2022-12-12T13:35:27.058Z,-0.07
2022-12-12T13:37:57.038Z,0.29
2022-12-12T13:40:29.062Z,0.21
2022-12-12T13:43:02.677Z,0.63
2022-12-12T13:45:43.813Z,0.18
2022-12-12T13:48:38.199Z,0.29
2022-12-12T13:51:39.832Z,0.28
2022-12-12T13:54:40.530Z,0.11
2022-12-12T13:57:15.791Z,-0.09
2022-12-12T14:00:16.566Z,0.39
2022-12-12T14:02:56.620Z,0.45
2022-12-12T14:05:31.024Z,0.75
2022-12-12T14:08:03.851Z,0.80
2022-12-12T14:10:35.044Z,0.31
2022-12-12T14:13:32.090Z,0.25
2022-12-12T14:16:06.977Z,0.26
2022-12-12T14:18:38.069Z,0.56
2022-12-12T14:21:09.406Z,0.54
2022-12-12T14:23:40.935Z,0.23
2022-12-12T14:26:49.762Z,0.33
2022-12-12T14:29:29.674Z,0.27
2022-12-12T14:32:14.279Z,0.49
2022-12-12T14:34:50.064Z,0.11
2022-12-12T14:37:34.140Z,0.65
2022-12-12T14:40:10.913Z,0.68
2022-12-12T14:43:18.966Z,0.19
2022-12-12T14:45:38.249Z,0.18
2022-12-12T14:48:16.606Z,0.13
2022-12-12T14:51:07.540Z,0.12
2022-12-12T14:53:44.443Z,-0.11
2022-12-12T14:56:14.110Z,0.27
2022-12-12T14:58:43.703Z,0.45
2022-12-12T15:01:13.079Z,-0.05
2022-12-12T15:03:44.690Z,0.00
2022-12-12T15:06:34.323Z,0.42
2022-12-12T15:09:30.273Z,0.51
2022-12-12T15:12:13.190Z,0.23
2022-12-12T15:14:51.968Z,0.11
2022-12-12T15:17:23.673Z,0.25
2022-12-12T15:19:53.074Z,0.02
2022-12-12T15:22:24.880Z,0.71
2022-12-12T15:24:53.443Z,0.64
2022-12-12T15:27:25.203Z,0.37
2022-12-12T15:29:52.995Z,0.42
2022-12-12T15:32:24.620Z,0.91
2022-12-12T15:35:01.915Z,0.94
2022-12-12T15:37:31.674Z,0.68
2022-12-12T15:40:03.419Z,1.09
2022-12-12T15:42:30.850Z,0.34
2022-12-12T15:44:58.647Z,0.61
2022-12-12T15:47:27.485Z,0.36
2022-12-12T15:50:13.633Z,0.27
2022-12-12T15:52:41.514Z,0.32
2022-12-12T15:55:20.412Z,0.39
2022-12-12T15:57:52.756Z,0.69
2022-12-12T16:00:32.149Z,0.44
2022-12-12T16:03:04.360Z,0.81
2022-12-12T16:05:34.524Z,0.46
2022-12-12T16:08:31.955Z,0.22
2022-12-12T16:11:01.283Z,0.77
2022-12-12T16:13:36.732Z,0.42
2022-12-12T16:16:35.300Z,0.66
2022-12-12T16:19:06.275Z,0.39
2022-12-12T16:21:36.567Z,0.11
2022-12-12T16:24:12.335Z,0.44
2022-12-12T16:26:40.756Z,0.04
2022-12-12T16:29:08.207Z,0.61
2022-12-12T16:31:35.596Z,0.45
2022-12-12T16:34:05.070Z,0.43
2022-12-12T16:36:37.001Z,0.52
2022-12-12T16:39:10.691Z,0.46
2022-12-12T16:41:38.221Z,0.40
2022-12-12T16:44:05.619Z,0.85
2022-12-12T16:46:33.066Z,0.51
2022-12-12T16:49:04.491Z,0.10
2022-12-12T16:51:35.862Z,0.75
2022-12-12T16:54:03.234Z,0.52
2022-12-12T16:56:30.697Z,0.62
2022-12-12T16:58:58.060Z,0.78
2022-12-12T17:01:25.536Z,0.62
2022-12-12T17:03:53.065Z,0.28
2022-12-12T17:06:20.621Z,0.58
2022-12-12T17:08:49.350Z,0.62
2022-12-12T17:11:17.037Z,0.09
2022-12-12T17:13:48.163Z,0.21
2022-12-12T17:16:15.739Z,0.43
2022-12-12T17:18:43.265Z,0.63
2022-12-12T17:21:10.832Z,0.36
2022-12-12T17:23:38.311Z,0.52
2022-12-12T17:26:07.139Z,0.94
2022-12-12T17:28:35.417Z,1.35
2022-12-12T17:31:03.228Z,0.82
2022-12-12T17:33:31.032Z,0.55
2022-12-12T17:36:00.195Z,0.71
2022-12-12T17:38:28.072Z,0.81
2022-12-12T17:40:56.836Z,0.18
2022-12-12T17:43:26.270Z,0.47
2022-12-12T17:46:01.669Z,0.33
2022-12-12T17:48:30.832Z,0.43
2022-12-12T17:51:00.127Z,0.56
2022-12-12T17:53:27.716Z,0.62
2022-12-12T17:56:01.211Z,1.05
2022-12-12T17:58:38.191Z,0.21
2022-12-12T18:01:12.688Z,0.36
2022-12-12T18:03:40.252Z,-0.05
2022-12-12T18:06:08.462Z,0.25
2022-12-12T18:08:36.044Z,0.45
2022-12-12T18:11:07.391Z,0.86
2022-12-12T18:13:38.478Z,0.48
2022-12-12T18:16:06.681Z,-0.11
2022-12-12T18:18:34.507Z,-0.18
2022-12-12T18:21:05.571Z,-0.03
2022-12-12T18:23:33.034Z,0.12
2022-12-12T18:26:03.760Z,0.28
2022-12-12T18:28:31.197Z,0.28
2022-12-12T18:30:59.956Z,0.11
2022-12-12T18:33:27.451Z,0.39
2022-12-12T18:36:02.588Z,-0.10
2022-12-12T18:38:30.333Z,0.01
2022-12-12T18:40:57.813Z,-0.01
2022-12-12T18:43:26.412Z,0.46
2022-12-12T18:45:54.080Z,0.35
2022-12-12T18:48:23.022Z,0.29
2022-12-12T18:50:50.395Z,0.46
2022-12-12T18:53:17.780Z,0.13
2022-12-12T18:55:45.547Z,0.22
2022-12-12T18:58:13.451Z,0.37
2022-12-12T19:00:40.929Z,0.47
2022-12-12T19:03:08.486Z,0.27
2022-12-12T19:05:43.061Z,0.50
2022-12-12T19:08:11.053Z,0.33
2022-12-12T19:10:40.737Z,0.10
2022-12-12T19:13:08.128Z,0.14
2022-12-12T19:15:35.525Z,0.18
2022-12-12T19:18:02.916Z,0.06
2022-12-12T19:20:30.479Z,0.41
2022-12-12T19:22:59.203Z,0.45
2022-12-12T19:25:26.585Z,0.50
2022-12-12T19:27:53.948Z,0.49
2022-12-12T19:30:21.372Z,0.45
2022-12-12T19:32:49.525Z,0.36
2022-12-12T19:35:17.142Z,-0.05
2022-12-12T19:37:44.504Z,-0.28
2022-12-12T19:40:14.912Z,0.30
2022-12-12T19:42:42.491Z,0.29
2022-12-12T19:45:10.804Z,0.30
2022-12-12T19:47:38.174Z,0.25
2022-12-12T19:50:06.547Z,0.14
2022-12-12T19:52:33.932Z,0.12
2022-12-12T19:55:01.339Z,0.40
2022-12-12T19:57:30.884Z,0.56
2022-12-12T19:59:58.338Z,0.53
2022-12-12T20:02:25.777Z,0.45
2022-12-12T20:04:53.231Z,0.11
2022-12-12T20:07:20.603Z,0.84
2022-12-12T20:09:48.064Z,0.89
2022-12-12T20:12:15.688Z,1.32
2022-12-12T20:14:44.438Z,1.55
2022-12-12T20:17:11.858Z,1.43
2022-12-12T20:19:39.270Z,1.66
2022-12-12T20:22:06.677Z,1.58
2022-12-12T20:24:34.870Z,1.00
2022-12-12T20:27:04.301Z,1.20
2022-12-12T20:29:32.043Z,0.78
2022-12-12T20:32:01.683Z,1.01
2022-12-12T20:34:29.707Z,1.44
2022-12-12T20:36:57.399Z,1.59
2022-12-12T20:39:25.907Z,1.24
2022-12-12T20:41:54.443Z,1.82
2022-12-12T20:44:23.267Z,1.78
2022-12-12T20:46:50.716Z,2.16
2022-12-12T20:49:23.827Z,1.85
2022-12-12T20:51:56.363Z,1.58
2022-12-12T20:54:25.257Z,1.82
2022-12-12T20:56:53.869Z,1.15
2022-12-12T20:59:21.278Z,0.82
2022-12-12T21:01:48.823Z,1.21
2022-12-12T21:04:16.526Z,1.82
2022-12-12T21:06:48.275Z,0.91
2022-12-12T21:09:22.541Z,0.75
2022-12-12T21:11:51.289Z,0.98
2022-12-12T21:14:18.690Z,1.34
2022-12-12T21:16:46.337Z,0.55
2022-12-12T21:19:16.040Z,1.12
2022-12-12T21:21:45.209Z,1.04
2022-12-12T21:24:13.954Z,1.44
2022-12-12T21:26:41.397Z,1.26
2022-12-12T21:29:08.863Z,0.59
2022-12-12T21:31:42.252Z,0.35
2022-12-12T21:34:12.727Z,0.04
2022-12-12T21:36:40.164Z,0.34
2022-12-12T21:39:08.954Z,0.49
2022-12-12T21:41:36.417Z,0.35
2022-12-12T21:44:04.172Z,0.38
2022-12-12T21:46:31.691Z,0.73
2022-12-12T21:49:16.987Z,0.96
2022-12-12T21:51:44.925Z,0.46
2022-12-12T21:54:15.355Z,0.57
2022-12-12T21:56:43.733Z,0.47
2022-12-12T21:59:11.876Z,0.81
2022-12-12T22:01:39.927Z,0.74
2022-12-12T22:04:07.554Z,0.88
2022-12-12T22:06:36.600Z,0.94
2022-12-12T22:09:06.038Z,1.13
2022-12-12T22:11:40.906Z,1.27
2022-12-12T22:14:10.910Z,0.97
2022-12-12T22:16:38.966Z,0.91
2022-12-12T22:19:08.723Z,1.36
2022-12-12T22:21:37.085Z,1.20
2022-12-12T22:24:05.132Z,1.67
2022-12-12T22:26:36.299Z,1.48
2022-12-12T22:29:06.097Z,1.29
2022-12-12T22:31:35.727Z,0.30
2022-12-12T22:34:05.605Z,0.88
2022-12-12T22:36:35.950Z,1.16
2022-12-12T22:39:04.569Z,1.21
2022-12-12T22:41:32.041Z,1.18
2022-12-12T22:44:02.472Z,1.33
2022-12-12T22:46:30.372Z,1.28
2022-12-12T22:49:00.062Z,0.91
2022-12-12T22:51:29.095Z,1.19
2022-12-12T22:53:57.123Z,1.21
2022-12-12T22:56:24.832Z,0.63
2022-12-12T22:58:52.269Z,1.05
2022-12-12T23:01:23.117Z,1.12
2022-12-12T23:03:50.983Z,1.23
2022-12-12T23:06:21.576Z,1.48
2022-12-12T23:08:51.249Z,4.08
2022-12-12T23:11:20.163Z,7.93
2022-12-12T23:13:54.174Z,7.46
2022-12-12T23:16:25.191Z,6.44
2022-12-12T23:18:52.907Z,8.28
2022-12-12T23:21:22.453Z,8.56
2022-12-12T23:23:51.834Z,8.48
2022-12-12T23:26:21.527Z,8.08
2022-12-12T23:28:49.744Z,8.60
2022-12-12T23:31:19.672Z,7.93
2022-12-12T23:33:49.203Z,6.02
2022-12-12T23:36:16.866Z,4.19
2022-12-12T23:38:44.871Z,2.67
2022-12-12T23:41:15.125Z,2.66
2022-12-12T23:43:43.320Z,2.93
2022-12-12T23:46:28.204Z,2.63
2022-12-12T23:48:59.174Z,2.87
2022-12-12T23:51:28.476Z,2.67
2022-12-12T23:53:56.384Z,1.98
2022-12-12T23:56:23.943Z,2.07
2022-12-12T23:58:52.564Z,1.60
